createdAt,value
2022-11-24T00:01:47.425Z,30.50
2022-11-24T00:05:49.586Z,31.95
2022-11-24T00:09:51.314Z,31.55
2022-11-24T00:13:53.757Z,31.33
2022-11-24T00:17:55.703Z,30.52
2022-11-24T00:21:57.603Z,32.03
2022-11-24T00:26:11.205Z,32.65
2022-11-24T00:30:13.332Z,32.25
2022-11-24T00:34:15.364Z,37.92
2022-11-24T00:38:17.029Z,37.25
2022-11-24T00:42:19.001Z,34.63
2022-11-24T00:46:21.772Z,33.28
2022-11-24T00:50:23.783Z,30.85
2022-11-24T00:54:25.469Z,34.25
2022-11-24T00:58:27.409Z,33.50
2022-11-24T01:02:29.213Z,35.22
2022-11-24T01:06:32.690Z,38.85
2022-11-24T01:10:34.965Z,38.20
2022-11-24T01:14:37.177Z,39.22
2022-11-24T01:18:39.074Z,39.20
2022-11-24T01:22:44.115Z,38.00
2022-11-24T01:26:45.878Z,35.85
2022-11-24T01:31:00.216Z,35.97
2022-11-24T01:35:06.158Z,34.75
2022-11-24T01:39:08.122Z,36.20
2022-11-24T01:43:18.672Z,36.45
2022-11-24T01:47:40.765Z,32.75
2022-11-24T01:51:48.312Z,29.60
2022-11-24T01:55:52.819Z,32.05
2022-11-24T02:00:01.947Z,30.63
2022-11-24T02:04:19.766Z,30.75
2022-11-24T02:08:35.583Z,28.17
2022-11-24T02:12:41.132Z,28.55
2022-11-24T02:16:48.270Z,26.75
2022-11-24T02:20:50.264Z,24.67
2022-11-24T02:25:03.333Z,26.08
2022-11-24T02:29:05.222Z,23.92
2022-11-24T02:33:06.960Z,26.60
2022-11-24T02:37:08.933Z,27.45
2022-11-24T02:41:14.993Z,25.75
2022-11-24T02:45:17.220Z,25.13
2022-11-24T02:49:18.878Z,26.48
2022-11-24T02:53:20.788Z,22.25
2022-11-24T02:57:23.463Z,25.27
2022-11-24T03:01:25.472Z,25.77
2022-11-24T03:05:27.192Z,26.13
2022-11-24T03:09:30.468Z,24.85
2022-11-24T03:13:32.166Z,25.73
2022-11-24T03:17:34.044Z,22.40
2022-11-24T03:21:36.669Z,22.10
2022-11-24T03:25:38.555Z,22.48
2022-11-24T03:29:41.046Z,22.17
2022-11-24T03:33:43.042Z,21.80
2022-11-24T03:37:44.679Z,23.02
2022-11-24T03:41:46.717Z,25.25
2022-11-24T03:45:49.747Z,24.98
2022-11-24T03:49:51.611Z,25.15
2022-11-24T03:53:53.365Z,24.23
2022-11-24T03:57:55.283Z,23.85
2022-11-24T04:01:56.966Z,23.20
2022-11-24T04:05:58.948Z,21.80
2022-11-24T04:10:00.724Z,22.70
2022-11-24T04:14:02.596Z,23.17
2022-11-24T04:18:04.729Z,22.83
2022-11-24T04:22:06.959Z,24.77
2022-11-24T04:26:08.575Z,21.25
2022-11-24T04:30:10.949Z,21.33
2022-11-24T04:34:12.604Z,23.40
2022-11-24T04:39:22.976Z,22.42
2022-11-24T04:42:36.752Z,20.92
2022-11-24T04:46:38.449Z,20.58
2022-11-24T04:50:40.460Z,21.13
2022-11-24T04:54:42.273Z,21.10
2022-11-24T04:58:44.141Z,20.83
2022-11-24T05:02:45.790Z,24.08
2022-11-24T05:06:47.789Z,19.70
2022-11-24T05:10:49.468Z,22.77
2022-11-24T05:14:51.691Z,21.25
2022-11-24T05:18:53.439Z,20.45
2022-11-24T05:22:55.395Z,18.33
2022-11-24T05:26:57.178Z,20.55
2022-11-24T05:31:03.612Z,22.63
2022-11-24T05:35:06.129Z,23.55
2022-11-24T05:39:08.184Z,22.50
2022-11-24T05:43:15.459Z,22.17
2022-11-24T05:47:17.744Z,20.10
2022-11-24T05:51:19.346Z,20.58
2022-11-24T05:55:21.440Z,19.02
2022-11-24T05:59:23.054Z,19.77
2022-11-24T06:03:25.002Z,19.77
2022-11-24T06:07:26.943Z,19.23
2022-11-24T06:11:29.570Z,21.42
2022-11-24T06:15:31.507Z,22.45
2022-11-24T06:19:34.721Z,22.33
2022-11-24T06:23:38.598Z,19.60
2022-11-24T06:27:40.857Z,23.17
2022-11-24T06:31:42.883Z,24.02
2022-11-24T06:35:44.906Z,23.92
2022-11-24T06:39:46.829Z,23.10
2022-11-24T06:43:48.816Z,24.45
2022-11-24T06:47:54.528Z,26.02
2022-11-24T06:51:56.245Z,24.83
2022-11-24T06:56:02.268Z,23.95
2022-11-24T07:00:06.347Z,24.48
2022-11-24T07:04:08.409Z,26.77
2022-11-24T07:08:16.161Z,25.95
2022-11-24T07:12:19.655Z,26.38
2022-11-24T07:16:23.783Z,28.30
2022-11-24T07:20:26.069Z,27.58
2022-11-24T07:24:27.831Z,28.88
2022-11-24T07:28:30.551Z,28.30
2022-11-24T07:32:32.960Z,29.05
2022-11-24T07:36:34.926Z,28.65
2022-11-24T07:40:36.647Z,31.90
2022-11-24T07:44:38.738Z,29.63
2022-11-24T07:48:40.750Z,28.67
2022-11-24T07:52:42.617Z,28.17
2022-11-24T07:56:44.415Z,29.95
2022-11-24T08:00:46.446Z,25.20
2022-11-24T08:04:48.188Z,27.50
2022-11-24T08:08:50.245Z,28.73
2022-11-24T08:12:51.939Z,27.67
2022-11-24T08:16:53.900Z,28.73
2022-11-24T08:20:59.921Z,28.52
2022-11-24T08:25:01.863Z,28.30
2022-11-24T08:29:03.655Z,24.15
2022-11-24T08:33:05.633Z,24.80
2022-11-24T08:37:07.298Z,31.60
2022-11-24T08:41:12.007Z,25.67
2022-11-24T08:45:21.043Z,32.70
2022-11-24T08:49:24.058Z,28.60
2022-11-24T08:53:26.097Z,28.00
2022-11-24T08:57:28.029Z,31.45
2022-11-24T09:01:29.908Z,33.42
2022-11-24T09:09:55.008Z,27.50
2022-11-24T09:13:57.094Z,24.45
2022-11-24T09:17:58.832Z,23.38
2022-11-24T09:22:00.935Z,24.98
2022-11-24T09:26:04.972Z,20.73
2022-11-24T09:30:07.392Z,19.90
2022-11-24T09:34:13.338Z,23.33
2022-11-24T09:38:15.250Z,20.63
2022-11-24T09:42:29.090Z,31.98
2022-11-24T09:46:47.991Z,31.75
2022-11-24T09:50:50.709Z,25.70
2022-11-24T09:55:01.037Z,23.80
2022-11-24T09:59:07.209Z,28.10
2022-11-24T10:03:22.537Z,23.67
2022-11-24T10:07:38.155Z,25.70
2022-11-24T10:12:17.506Z,25.98
2022-11-24T10:20:40.370Z,22.40
2022-11-24T10:25:01.025Z,24.55
2022-11-24T10:29:23.164Z,25.25
2022-11-24T10:33:30.682Z,25.58
2022-11-24T10:41:51.019Z,25.00
2022-11-24T10:45:53.015Z,28.55
2022-11-24T10:50:15.270Z,29.10
2022-11-24T10:54:23.691Z,31.33
2022-11-24T11:02:40.294Z,26.97
2022-11-24T11:06:43.616Z,31.35
2022-11-24T11:10:47.739Z,26.95
2022-11-24T11:14:50.184Z,33.55
2022-11-24T11:18:52.955Z,20.75
2022-11-24T11:22:56.413Z,31.17
2022-11-24T11:27:03.766Z,27.15
2022-11-24T11:31:17.262Z,28.05
2022-11-24T11:35:21.793Z,28.58
2022-11-24T11:39:28.929Z,22.27
2022-11-24T11:43:39.761Z,23.23
2022-11-24T11:48:00.233Z,23.05
2022-11-24T11:52:27.840Z,20.80
2022-11-24T11:56:33.740Z,18.70
2022-11-24T12:00:45.287Z,46.78
2022-11-24T12:04:56.754Z,48.30
2022-11-24T12:09:29.977Z,43.53
2022-11-24T12:13:51.452Z,45.58
2022-11-24T12:18:03.650Z,56.80
2022-11-24T12:22:18.334Z,27.20
2022-11-24T12:26:41.995Z,74.10
2022-11-24T12:30:58.431Z,19.48
2022-11-24T12:35:06.154Z,18.63
2022-11-24T12:39:34.411Z,62.95
2022-11-24T12:43:38.743Z,28.13
2022-11-24T12:47:56.903Z,41.00
2022-11-24T12:52:04.456Z,24.48
2022-11-24T12:56:10.895Z,21.73
2022-11-24T13:00:23.006Z,24.17
2022-11-24T13:04:35.617Z,29.38
2022-11-24T13:08:38.356Z,34.78
2022-11-24T13:12:57.834Z,27.02
2022-11-24T13:21:27.566Z,23.58
2022-11-24T13:25:31.780Z,24.05
2022-11-24T13:29:36.415Z,43.65
2022-11-24T13:33:39.123Z,60.47
2022-11-24T13:37:40.758Z,119.60
2022-11-24T13:42:03.084Z,56.42
2022-11-24T13:46:05.141Z,64.38
2022-11-24T13:50:10.257Z,46.45
2022-11-24T13:54:12.221Z,45.05
2022-11-24T13:58:14.148Z,38.95
2022-11-24T14:02:23.229Z,26.88
2022-11-24T14:06:45.187Z,27.23
2022-11-24T14:10:47.121Z,34.60
2022-11-24T14:14:51.301Z,76.88
2022-11-24T14:18:53.266Z,47.25
2022-11-24T14:22:55.237Z,36.47
2022-11-24T14:26:56.943Z,34.10
2022-11-24T14:31:09.952Z,33.85
2022-11-24T14:35:25.506Z,48.88
2022-11-24T14:39:28.028Z,52.38
2022-11-24T14:43:32.045Z,54.15
2022-11-24T14:47:37.304Z,43.50
2022-11-24T14:51:44.722Z,58.97
2022-11-24T14:55:48.878Z,46.38
2022-11-24T15:00:15.592Z,39.45
2022-11-24T15:05:02.287Z,39.92
2022-11-24T15:08:53.733Z,38.90
2022-11-24T15:12:58.595Z,41.40
2022-11-24T15:17:01.099Z,41.67
2022-11-24T15:21:03.497Z,40.63
2022-11-24T15:25:41.293Z,45.10
2022-11-24T15:29:42.896Z,48.47
2022-11-24T15:33:44.833Z,47.00
2022-11-24T15:37:46.535Z,55.80
2022-11-24T15:41:48.466Z,44.63
2022-11-24T15:45:50.062Z,45.35
2022-11-24T15:49:52.096Z,45.92
2022-11-24T15:54:00.743Z,45.33
2022-11-24T15:58:03.359Z,49.00
2022-11-24T16:02:05.749Z,46.13
2022-11-24T16:06:13.311Z,43.50
2022-11-24T16:10:25.310Z,47.77
2022-11-24T16:14:27.899Z,43.13
2022-11-24T16:18:31.589Z,43.92
2022-11-24T16:22:33.589Z,43.45
2022-11-24T16:26:35.439Z,43.30
2022-11-24T16:30:38.199Z,43.25
2022-11-24T16:34:39.808Z,44.47
2022-11-24T16:38:41.893Z,47.25
2022-11-24T16:42:43.545Z,40.58
2022-11-24T16:46:45.569Z,44.00
2022-11-24T16:50:47.364Z,43.53
2022-11-24T16:54:49.368Z,43.75
2022-11-24T16:58:51.048Z,44.47
2022-11-24T17:02:53.143Z,48.47
2022-11-24T17:06:54.966Z,52.05
2022-11-24T17:10:56.994Z,53.30
2022-11-24T17:15:30.527Z,50.38
2022-11-24T17:19:20.691Z,61.33
2022-11-24T17:23:22.312Z,53.28
2022-11-24T17:27:24.498Z,51.35
2022-11-24T17:31:35.811Z,51.47
2022-11-24T17:35:38.478Z,53.28
2022-11-24T17:39:40.167Z,75.75
2022-11-24T17:43:42.329Z,67.93
2022-11-24T17:47:44.235Z,66.40
2022-11-24T17:51:50.364Z,58.40
2022-11-24T17:55:52.031Z,58.55
2022-11-24T17:59:54.153Z,59.05
2022-11-24T18:03:56.275Z,59.53
2022-11-24T18:07:59.783Z,59.13
2022-11-24T18:12:01.385Z,55.90
2022-11-24T18:16:06.676Z,61.15
2022-11-24T18:20:08.773Z,58.17
2022-11-24T18:24:12.246Z,60.03
2022-11-24T18:28:14.181Z,56.60
2022-11-24T18:32:16.199Z,56.20
2022-11-24T18:36:22.627Z,57.95
2022-11-24T18:40:26.649Z,52.85
2022-11-24T18:44:28.350Z,61.17
2022-11-24T18:48:30.292Z,55.53
2022-11-24T18:52:32.116Z,55.85
2022-11-24T18:56:34.174Z,56.70
2022-11-24T19:00:35.765Z,52.53
2022-11-24T19:04:37.947Z,53.05
2022-11-24T19:08:39.633Z,55.03
2022-11-24T19:12:42.637Z,55.83
2022-11-24T19:16:44.927Z,56.92
2022-11-24T19:20:47.775Z,56.03
2022-11-24T19:24:51.911Z,52.15
2022-11-24T19:28:54.099Z,57.78
2022-11-24T19:32:57.018Z,57.80
2022-11-24T19:36:59.051Z,57.40
2022-11-24T19:41:12.433Z,55.80
2022-11-24T19:45:14.537Z,61.97
2022-11-24T19:49:16.429Z,59.22
2022-11-24T19:53:18.638Z,57.80
2022-11-24T19:57:20.225Z,58.40
2022-11-24T20:01:27.695Z,61.58
2022-11-24T20:05:29.478Z,59.37
2022-11-24T20:09:31.453Z,61.15
2022-11-24T20:13:37.926Z,61.33
2022-11-24T20:17:40.003Z,65.28
2022-11-24T20:21:46.020Z,65.57
2022-11-24T20:25:48.013Z,59.55
2022-11-24T20:29:49.814Z,59.08
2022-11-24T20:33:51.996Z,58.53
2022-11-24T20:37:53.771Z,70.60
2022-11-24T20:41:56.404Z,66.90
2022-11-24T20:46:19.527Z,59.30
2022-11-24T20:50:21.458Z,56.33
2022-11-24T20:54:23.442Z,64.75
2022-11-24T20:58:25.559Z,62.03
2022-11-24T21:02:27.203Z,64.95
2022-11-24T21:06:30.652Z,68.65
2022-11-24T21:10:32.257Z,59.53
2022-11-24T21:14:35.460Z,58.40
2022-11-24T21:18:37.482Z,62.50
2022-11-24T21:22:40.188Z,66.90
2022-11-24T21:26:43.062Z,73.93
2022-11-24T21:30:45.188Z,76.38
2022-11-24T21:34:46.953Z,57.15
2022-11-24T21:38:53.995Z,64.60
2022-11-24T21:42:59.052Z,59.90
2022-11-24T21:47:01.269Z,61.78
2022-11-24T21:51:06.059Z,59.08
2022-11-24T21:55:08.612Z,62.42
2022-11-24T21:59:10.359Z,54.65
2022-11-24T22:03:12.675Z,56.85
2022-11-24T22:07:14.574Z,53.85
2022-11-24T22:11:19.557Z,52.42
2022-11-24T22:15:21.318Z,51.75
2022-11-24T22:19:23.477Z,49.63
2022-11-24T22:23:25.202Z,48.60
2022-11-24T22:27:27.210Z,52.28
2022-11-24T22:31:31.756Z,49.00
2022-11-24T22:35:33.743Z,50.70
2022-11-24T22:39:35.729Z,52.25
2022-11-24T22:43:40.089Z,56.28
2022-11-24T22:47:41.904Z,54.38
2022-11-24T22:51:43.891Z,48.38
2022-11-24T22:55:45.809Z,53.25
2022-11-24T22:59:47.837Z,51.97
2022-11-24T23:03:50.894Z,51.38
2022-11-24T23:07:53.047Z,54.47
2022-11-24T23:11:54.821Z,53.28
2022-11-24T23:16:02.140Z,57.58
2022-11-24T23:20:04.749Z,58.83
2022-11-24T23:24:08.195Z,58.97
2022-11-24T23:28:10.205Z,57.17
2022-11-24T23:32:12.269Z,57.25
2022-11-24T23:36:17.853Z,57.25
2022-11-24T23:40:19.865Z,54.17
2022-11-24T23:44:22.098Z,56.22
2022-11-24T23:48:24.022Z,55.85
2022-11-24T23:52:25.683Z,50.20
2022-11-24T23:56:33.554Z,54.70
